San Francisco, CA

2:37 PM PDT on October 21, 2014 (GMT -0700)
SOMA | Change Station
CLOSE
Current Station
Personal Weather Station
Location: San Francisco, CA
Elevation: 23 ft
Nearby Weather Stations
Active Advisory: Beach Hazard Statement

Elev 23 ft 37.78 °N, 122.41 °W | Updated 5 minutes ago

Clear
Clear
70.1 °F
Feels Like 77 °F
N
5.0
Wind Variable Wind from SSW
Gusts 7.0 mph

Today
High -- | Low -- °F
--% Chance of Precip.
Yesterday
High -- | Low -- °F
Precip. -- in
7:23 AM 6:23 PM
Waning Crescent, 4% visible
Pressure 30.04 in
Visibility 10.0 miles
Clouds Few 22000 ft
Heat Index 77 °F
Dew Point 52 °F
Humidity 53%
Rainfall 0.00 in
Snow Depth Not available.
UV 3.2 out of 12
Pollen 2.30 out of 12
Ozone Good
PM2.5 Good
Flu Activity Sporadic
METAR KOAK 212053Z 29011KT 10SM FEW220 21/06 A3004 RMK AO2 SLP172 T02060061 58021

More Conditions Fewer Conditions

Pressure 30.04 in
Visibility 10.0 miles
Clouds Few 22000 ft
Heat Index 77 °F
Dew Point 52 °F
Humidity 53%
Rainfall 0.00 in
Snow Depth Not available.
UV 3.2 out of 12
Pollen 2.30 out of 12
Ozone Good
PM2.5 Good
Flu Activity Sporadic
METAR KOAK 212053Z 29011KT 10SM FEW220 21/06 A3004 RMK AO2 SLP172 T02060061 58021

More Conditions Fewer Conditions

10-Day Weather Forecast

Almanac

Astronomy

Oct. 21, 2014 Rise Set
Actual Time 7:23 AM PDT 6:23 PM PDT
Civil Twilight 6:57 AM PDT 6:50 PM PDT
Nautical Twilight 6:26 AM PDT 7:21 PM PDT
Astronomical Twilight 5:56 AM PDT 7:51 PM PDT
Moon 5:15 AM PDT 5:19 PM PDT
Length of Visible Light 11h 53m
Length of Day
11h 00m
Tomorrow will be 2m 17s shorter.
Waning Crescent, 4% of the Moon is Illuminated
Today
Waning Crescent
Oct 23
New
Oct 30
First Quarter
Nov 6
Full
Nov 14
Last Quarter

Today's Extremes

State Highs State Lows

Community

WunderPhotos

Upload Photos

1,763,779 photos uploaded!

Nearby

Air Quality

  Air Quality AQ Index Pollutant
Yesterday Good
OZONE
Yesterday Good
PM2.5
Current Good
OZONE
Current Good
PM2.5
Tuesday Good
OZONE
Wednesday Good
OZONE
Thursday Good
PM2.5
Friday Good
PM2.5
Saturday Good
PM2.5
Sunday Good
PM2.5

Snow Depth

Station Depth Elevation
Echo Peak 1 in 7800 ft
Rubicon #2 0 in 7500 ft
Ward Creek #3 1 in 6750 ft
CSS Lab 0 in 6900 ft
Tahoe City Cross 0 in 6750 ft

Earthquake Activity

City Distance Mag. Time & Date
East Foothills, California 45 miles 2.6 8:16 AM PDT
2014-10-18
Minimum magnitude displayed is 2.5.

Coastal Water Temperatures

Place Temperature
No Stations Reporting

Nearby Weather Stations